Time;durP1;ratioP1;P1;durP2;ratioP2;P2;SDS_P1;SDS_P2;PMS_P1;PMS_P2;Temp;Humidity;BMP_temperature;BMP_pressure;BME280_temperature;BME280_humidity;BME280_pressure;Samples;Min_cycle;Max_cycle;Signal;HPM_P1;HPM_P2
2024/01/30 00:02:18;;;;;;;6.90;3.20;;;;;;;0.62;56.06;95795.00;5045514;28;20040;-73
2024/01/30 00:04:43;;;;;;;9.27;4.43;;;;;;;0.53;57.11;95806.69;5045209;28;20088;-73
2024/01/30 00:07:08;;;;;;;7.68;4.10;;;;;;;0.48;56.66;95801.25;5045059;28;20021;-73
2024/01/30 00:09:34;;;;;;;11.82;4.28;;;;;;;0.43;56.65;95806.28;5045019;28;20025;-73
2024/01/30 00:11:59;;;;;;;8.43;3.78;;;;;;;0.39;56.77;95806.69;5044939;28;20040;-74
2024/01/30 00:14:25;;;;;;;6.95;3.47;;;;;;;0.40;56.42;95807.50;5045000;28;20028;-73
2024/01/30 00:16:51;;;;;;;5.32;2.85;;;;;;;0.38;55.71;95801.66;5044985;28;20029;-73
2024/01/30 00:19:17;;;;;;;8.07;3.63;;;;;;;0.35;55.63;95812.56;5044628;28;20029;-73
2024/01/30 00:21:42;;;;;;;9.23;4.32;;;;;;;0.31;55.65;95806.91;5044652;28;20048;-73
2024/01/30 00:24:08;;;;;;;6.70;3.90;;;;;;;0.34;56.63;95811.72;5044662;28;20041;-73
2024/01/30 00:26:33;;;;;;;10.02;4.03;;;;;;;0.35;57.28;95804.69;5044664;28;20105;-73
2024/01/30 00:28:59;;;;;;;9.38;3.95;;;;;;;0.33;56.86;95807.50;5044290;28;20036;-74
2024/01/30 00:31:24;;;;;;;7.35;3.53;;;;;;;0.31;55.55;95806.91;5044440;28;20017;-73
2024/01/30 00:33:50;;;;;;;6.32;3.80;;;;;;;0.21;56.03;95803.06;5044433;28;20048;-73
2024/01/30 00:36:15;;;;;;;8.70;3.28;;;;;;;0.16;57.07;95807.09;5044015;28;20028;-72
2024/01/30 00:38:41;;;;;;;7.25;3.17;;;;;;;0.15;57.31;95802.84;5044118;28;20101;-73
2024/01/30 00:41:09;;;;;;;7.75;3.58;;;;;;;0.11;57.63;95804.25;5044309;28;20021;-73
2024/01/30 00:43:35;;;;;;;6.95;3.85;;;;;;;0.12;57.57;95811.13;5044063;28;20071;-73
2024/01/30 00:46:01;;;;;;;7.30;3.55;;;;;;;0.12;58.01;95800.63;5044457;28;20232;-73
2024/01/30 00:48:26;;;;;;;7.45;3.75;;;;;;;0.10;58.12;95805.28;5044303;28;20113;-73
2024/01/30 00:50:51;;;;;;;10.52;4.15;;;;;;;0.06;58.52;95796.19;5044196;28;20271;-73
2024/01/30 00:53:17;;;;;;;9.98;3.72;;;;;;;0.08;58.52;95807.28;5044120;28;20021;-73
2024/01/30 00:55:43;;;;;;;7.18;3.58;;;;;;;0.10;58.42;95807.06;5043998;28;20017;-73
2024/01/30 00:58:09;;;;;;;10.60;3.30;;;;;;;0.12;58.45;95802.44;5043047;28;20025;-73
2024/01/30 01:00:34;;;;;;;7.57;3.58;;;;;;;0.14;58.37;95803.88;5044089;28;20024;-71
2024/01/30 01:02:59;;;;;;;7.47;3.55;;;;;;;0.16;58.60;95793.97;5043904;28;20040;-71
2024/01/30 01:05:25;;;;;;;9.43;4.53;;;;;;;0.18;58.67;95789.34;5043849;28;20021;-72
2024/01/30 01:07:51;;;;;;;7.22;3.60;;;;;;;0.20;58.37;95794.38;5043820;28;20044;-72
2024/01/30 01:10:17;;;;;;;9.07;3.30;;;;;;;0.19;58.37;95785.69;5043638;28;20056;-72
2024/01/30 01:12:43;;;;;;;8.50;4.38;;;;;;;0.17;58.22;95782.47;5043687;28;20025;-72
2024/01/30 01:15:09;;;;;;;7.18;3.30;;;;;;;0.18;58.89;95793.75;5043774;28;20251;-72
2024/01/30 01:17:36;;;;;;;8.45;3.70;;;;;;;0.12;58.95;95802.44;5043619;28;20029;-72
2024/01/30 01:20:01;;;;;;;7.35;3.38;;;;;;;0.05;59.03;95791.13;5043157;28;20049;-72
2024/01/30 01:22:27;;;;;;;6.45;3.15;;;;;;;-0.09;59.33;95791.09;5043447;28;20040;-72
2024/01/30 01:24:52;;;;;;;9.07;4.28;;;;;;;-0.19;59.44;95790.66;5043512;28;20093;-72
2024/01/30 01:27:18;;;;;;;9.73;4.43;;;;;;;-0.16;59.34;95797.31;5043510;28;20057;-72
2024/01/30 01:29:43;;;;;;;11.57;4.72;;;;;;;-0.23;59.83;95798.13;5043485;28;20017;-72
2024/01/30 01:32:09;;;;;;;9.52;4.63;;;;;;;-0.29;59.97;95798.91;5043545;28;20048;-73
2024/01/30 01:34:34;;;;;;;10.25;4.30;;;;;;;-0.27;59.98;95802.13;5042345;28;20215;-72
2024/01/30 01:36:59;;;;;;;8.70;4.40;;;;;;;-0.26;60.22;95798.53;5043546;28;20040;-72
2024/01/30 01:39:25;;;;;;;7.88;4.22;;;;;;;-0.28;60.45;95797.91;5043567;28;20271;-71
2024/01/30 01:41:51;;;;;;;8.70;3.45;;;;;;;-0.30;60.45;95802.53;5042849;28;20040;-73
2024/01/30 01:44:18;;;;;;;9.73;4.18;;;;;;;-0.33;60.05;95802.94;5043279;28;20033;-72
2024/01/30 01:46:43;;;;;;;7.97;4.68;;;;;;;-0.36;60.05;95805.94;5043374;28;20029;-72
2024/01/30 01:49:09;;;;;;;10.60;4.50;;;;;;;-0.34;60.27;95806.56;5043336;28;20032;-73
2024/01/30 01:51:36;;;;;;;10.98;4.95;;;;;;;-0.34;60.10;95806.56;5043545;28;20032;-72
2024/01/30 01:54:05;;;;;;;7.82;4.57;;;;;;;-0.36;60.77;95805.94;5043236;28;20033;-72
2024/01/30 01:56:32;;;;;;;10.10;4.50;;;;;;;-0.36;61.01;95803.34;5043149;28;20056;-72
2024/01/30 01:59:04;;;;;;;11.55;4.55;;;;;;;-0.35;61.44;95798.91;5043231;28;20029;-72
2024/01/30 02:01:31;;;;;;;12.77;4.90;;;;;;;-0.37;61.13;95801.69;5043419;28;20278;-72
2024/01/30 02:03:58;;;;;;;9.77;5.35;;;;;;;-0.35;61.52;95804.94;5043247;28;20135;-72
2024/01/30 02:06:24;;;;;;;12.35;5.30;;;;;;;-0.33;61.58;95802.94;5042593;28;20100;-72
2024/01/30 02:08:49;;;;;;;8.27;4.68;;;;;;;-0.32;61.74;95809.78;5044143;28;20259;-72
2024/01/30 02:11:16;;;;;;;12.73;4.43;;;;;;;-0.29;61.23;95803.34;5047016;28;20064;-72
2024/01/30 02:13:42;;;;;;;12.95;4.75;;;;;;;-0.30;60.76;95822.72;5046962;28;20021;-72
2024/01/30 02:16:07;;;;;;;8.88;4.57;;;;;;;-0.33;60.34;95816.03;5047040;28;20227;-72
2024/01/30 02:18:33;;;;;;;6.50;3.58;;;;;;;-0.28;59.74;95813.63;5047048;28;20251;-72
2024/01/30 02:21:03;;;;;;;9.93;3.70;;;;;;;-0.46;58.73;95805.50;5047057;28;20056;-72
2024/01/30 02:23:32;;;;;;;5.88;3.50;;;;;;;-0.37;59.08;95806.94;5046688;28;20347;-72
2024/01/30 02:25:58;;;;;;;8.55;3.42;;;;;;;-0.25;60.23;95805.38;5046984;28;20040;-72
2024/01/30 02:28:23;;;;;;;9.02;3.92;;;;;;;-0.22;60.58;95807.59;5046957;28;20018;-72
2024/01/30 02:30:49;;;;;;;7.07;3.58;;;;;;;-0.18;60.05;95804.56;5046753;28;20014;-71
2024/01/30 02:33:14;;;;;;;7.35;3.35;;;;;;;-0.14;59.79;95803.19;5046678;28;20021;-72
2024/01/30 02:35:39;;;;;;;11.07;4.00;;;;;;;-0.10;59.13;95796.53;5046297;28;20259;-72
2024/01/30 02:38:05;;;;;;;5.65;3.28;;;;;;;-0.05;58.95;95804.63;5046806;28;20029;-72
2024/01/30 02:40:31;;;;;;;7.28;3.63;;;;;;;-0.05;58.67;95807.25;5046648;28;20029;-72
2024/01/30 02:42:58;;;;;;;14.32;4.10;;;;;;;-0.06;58.59;95795.97;5046420;28;20219;-73
2024/01/30 02:45:24;;;;;;;9.32;3.83;;;;;;;-0.03;58.22;95810.47;5046387;28;20033;-73
2024/01/30 02:47:49;;;;;;;6.30;3.35;;;;;;;-0.01;57.71;95797.97;5046561;28;20032;-73
2024/01/30 02:50:15;;;;;;;7.57;3.42;;;;;;;0.05;57.59;95801.63;5046492;28;20047;-73
2024/01/30 02:52:40;;;;;;;6.72;3.63;;;;;;;0.07;57.11;95805.66;5046629;28;20030;-73
2024/01/30 02:55:06;;;;;;;5.65;2.72;;;;;;;0.11;56.85;95801.63;5046454;28;20033;-73
2024/01/30 02:57:31;;;;;;;7.22;3.38;;;;;;;0.13;56.90;95804.84;5046322;28;20025;-73
2024/01/30 02:59:57;;;;;;;8.07;3.80;;;;;;;0.15;57.17;95808.09;5046315;28;20024;-73
2024/01/30 03:02:22;;;;;;;7.03;3.47;;;;;;;0.16;56.88;95801.84;5046325;28;20052;-71
2024/01/30 03:04:47;;;;;;;5.40;3.10;;;;;;;0.20;56.30;95804.84;5045067;28;20346;-72
2024/01/30 03:07:13;;;;;;;7.75;3.70;;;;;;;0.19;56.81;95798.81;5045950;28;20025;-72
2024/01/30 03:09:38;;;;;;;10.35;4.20;;;;;;;0.23;56.58;95795.81;5045749;28;20018;-72
2024/01/30 03:12:04;;;;;;;7.80;3.72;;;;;;;0.28;56.12;95796.00;5046206;28;20041;-71
2024/01/30 03:14:31;;;;;;;6.68;3.17;;;;;;;0.27;56.13;95794.41;5046830;28;20060;-72
2024/01/30 03:16:57;;;;;;;8.35;3.97;;;;;;;0.30;56.22;95792.16;5046001;28;20025;-72
2024/01/30 03:19:23;;;;;;;7.22;3.30;;;;;;;0.34;56.52;95797.81;5045409;28;20036;-71
2024/01/30 03:21:48;;;;;;;9.95;3.92;;;;;;;0.34;56.78;95790.75;5045502;28;20027;-71
2024/01/30 03:24:13;;;;;;;9.98;4.00;;;;;;;0.38;55.93;95797.19;5045856;28;20079;-71
2024/01/30 03:26:39;;;;;;;8.95;3.85;;;;;;;0.35;55.85;95797.63;5045951;28;20059;-72
2024/01/30 03:29:04;;;;;;;9.02;4.05;;;;;;;0.34;56.08;95797.81;5045704;28;20067;-71
2024/01/30 03:31:30;;;;;;;12.25;3.97;;;;;;;0.34;55.89;95789.94;5045869;28;20025;-71
2024/01/30 03:33:55;;;;;;;8.82;3.67;;;;;;;0.25;55.34;95783.28;5045748;28;20072;-71
2024/01/30 03:36:20;;;;;;;7.40;3.40;;;;;;;0.24;55.07;95786.91;5045594;28;20025;-71
2024/01/30 03:38:46;;;;;;;7.00;3.40;;;;;;;0.20;55.26;95789.13;5045350;28;20349;-73
2024/01/30 03:41:11;;;;;;;9.18;2.60;;;;;;;0.21;55.06;95793.38;5045569;28;20030;-73
2024/01/30 03:43:37;;;;;;;6.68;2.65;;;;;;;0.25;55.04;95781.47;5045626;28;20255;-73
2024/01/30 03:46:03;;;;;;;9.45;4.10;;;;;;;0.26;55.22;95777.03;5045559;28;20029;-72
2024/01/30 03:48:29;;;;;;;7.07;3.42;;;;;;;0.32;55.13;95779.66;5045628;28;20021;-73
2024/01/30 03:50:54;;;;;;;5.93;3.17;;;;;;;0.34;55.42;95780.25;5045177;28;20025;-73
2024/01/30 03:53:20;;;;;;;7.05;3.30;;;;;;;0.35;54.85;95783.69;5045381;28;20384;-72
2024/01/30 03:55:45;;;;;;;9.45;4.13;;;;;;;0.36;54.86;95778.22;5045015;28;20052;-72
2024/01/30 03:58:11;;;;;;;7.13;3.70;;;;;;;0.35;54.82;95786.31;5044866;28;20029;-72
2024/01/30 04:00:36;;;;;;;11.63;3.80;;;;;;;0.32;54.86;95770.97;5044582;28;20033;-73
2024/01/30 04:03:02;;;;;;;6.75;3.38;;;;;;;0.19;54.67;95780.44;5045194;28;20055;-73
2024/01/30 04:05:27;;;;;;;7.32;3.17;;;;;;;0.22;54.73;95776.63;5044584;28;20060;-72
2024/01/30 04:07:53;;;;;;;9.02;3.05;;;;;;;0.29;54.50;95782.69;5044778;28;20044;-72
2024/01/30 04:10:18;;;;;;;8.52;3.40;;;;;;;0.31;54.53;95779.88;5045424;28;20017;-73
2024/01/30 04:12:43;;;;;;;9.07;4.00;;;;;;;0.32;54.48;95769.16;5045102;28;20032;-72
2024/01/30 04:15:09;;;;;;;14.00;4.00;;;;;;;0.34;54.44;95772.38;5043797;28;20037;-72
2024/01/30 04:17:34;;;;;;;6.28;3.83;;;;;;;0.34;54.43;95772.38;5044780;28;20083;-73
2024/01/30 04:20:00;;;;;;;16.50;3.85;;;;;;;0.32;55.43;95774.41;5044858;28;20037;-73
2024/01/30 04:22:25;;;;;;;7.03;3.55;;;;;;;0.32;55.75;95779.66;5044775;28;20312;-73
2024/01/30 04:24:50;;;;;;;5.85;2.90;;;;;;;0.32;55.34;95773.59;5044837;28;20200;-72
2024/01/30 04:27:16;;;;;;;5.53;2.83;;;;;;;0.34;55.42;95779.44;5044878;28;20037;-74
2024/01/30 04:29:41;;;;;;;8.75;2.70;;;;;;;0.33;55.45;95781.28;5044424;28;20087;-73
2024/01/30 04:32:07;;;;;;;10.25;3.05;;;;;;;0.34;55.34;95782.06;5043509;28;20389;-74
2024/01/30 04:34:32;;;;;;;10.23;3.10;;;;;;;0.34;54.89;95785.50;5044427;28;20025;-74
2024/01/30 04:36:58;;;;;;;5.65;2.60;;;;;;;0.37;54.30;95781.69;5043256;28;20033;-73
2024/01/30 04:39:23;;;;;;;4.93;2.50;;;;;;;0.34;53.85;95779.44;5044127;28;20041;-74
2024/01/30 04:41:48;;;;;;;7.15;2.83;;;;;;;0.32;53.67;95781.47;5044121;28;20021;-74
2024/01/30 04:44:14;;;;;;;5.43;2.28;;;;;;;0.29;53.49;95784.50;5044016;28;20099;-73
2024/01/30 04:46:40;;;;;;;7.85;2.67;;;;;;;0.31;52.52;95777.25;5043803;28;20209;-75
2024/01/30 04:49:07;;;;;;;9.15;2.92;;;;;;;0.28;52.86;95785.50;5042719;28;20271;-74
2024/01/30 04:51:33;;;;;;;9.82;2.88;;;;;;;0.26;52.33;95787.53;5044186;28;20029;-74
2024/01/30 04:53:58;;;;;;;5.82;2.70;;;;;;;0.23;52.49;95782.69;5044151;28;20071;-74
2024/01/30 04:56:24;;;;;;;12.20;2.78;;;;;;;0.23;52.09;95791.34;5043370;28;20135;-73
2024/01/30 04:58:49;;;;;;;8.77;3.67;;;;;;;0.22;52.22;95794.16;5043643;28;20044;-74
2024/01/30 05:01:16;;;;;;;6.40;3.42;;;;;;;0.18;52.91;95799.84;5043449;28;20313;-75
2024/01/30 05:03:41;;;;;;;18.55;4.60;;;;;;;0.15;53.31;95800.22;5043466;28;20025;-73
2024/01/30 05:06:07;;;;;;;12.77;4.38;;;;;;;0.13;53.81;95801.44;5043466;28;20033;-73
2024/01/30 05:08:32;;;;;;;19.10;4.90;;;;;;;0.06;53.96;95809.28;5043913;28;20045;-73
2024/01/30 05:11:00;;;;;;;21.15;5.15;;;;;;;-0.03;54.15;95800.78;5043798;28;20022;-73
2024/01/30 05:13:26;;;;;;;14.80;5.30;;;;;;;-0.02;54.49;95809.44;5043476;28;20346;-74
2024/01/30 05:15:51;;;;;;;7.00;3.80;;;;;;;0.01;54.67;95803.81;5043798;28;20096;-72
2024/01/30 05:18:17;;;;;;;14.32;4.30;;;;;;;0.04;54.99;95821.78;5043622;28;20017;-72
2024/01/30 05:20:42;;;;;;;12.55;4.70;;;;;;;0.02;55.18;95815.94;5043593;28;20383;-72
2024/01/30 05:23:07;;;;;;;12.68;4.32;;;;;;;-0.01;55.49;95811.09;5043573;28;20336;-72
2024/01/30 05:25:33;;;;;;;11.77;4.30;;;;;;;-0.04;55.25;95814.09;5043782;28;20109;-72
2024/01/30 05:27:59;;;;;;;15.27;3.63;;;;;;;-0.11;54.98;95813.28;5043773;28;20021;-73
2024/01/30 05:30:24;;;;;;;9.52;3.70;;;;;;;-0.15;55.26;95825.16;5043414;28;20179;-73
2024/01/30 05:32:49;;;;;;;24.23;4.63;;;;;;;-0.16;55.65;95818.28;5043093;28;20009;-72
2024/01/30 05:35:15;;;;;;;17.35;3.40;;;;;;;-0.19;54.88;95810.84;5043448;28;20247;-73
2024/01/30 05:37:40;;;;;;;17.23;3.55;;;;;;;-0.22;54.82;95817.28;5043593;28;20025;-73
2024/01/30 05:40:06;;;;;;;8.95;3.58;;;;;;;-0.25;54.85;95822.91;5043402;28;20021;-73
2024/01/30 05:42:32;;;;;;;10.65;4.18;;;;;;;-0.30;54.86;95814.84;5043238;28;20025;-73
2024/01/30 05:44:57;;;;;;;14.80;4.10;;;;;;;-0.28;55.19;95820.69;5043101;28;20071;-73
2024/01/30 05:47:23;;;;;;;9.50;3.97;;;;;;;-0.31;55.61;95824.50;5043191;28;20040;-73
2024/01/30 05:49:48;;;;;;;10.93;4.07;;;;;;;-0.30;55.35;95820.88;5043108;28;20081;-71
2024/01/30 05:52:15;;;;;;;17.90;4.50;;;;;;;-0.30;55.01;95818.28;5043217;28;20041;-71
2024/01/30 05:54:40;;;;;;;23.70;4.43;;;;;;;-0.32;54.96;95814.25;5043045;28;20219;-71
2024/01/30 05:57:06;;;;;;;16.17;3.63;;;;;;;-0.36;55.36;95808.56;5042779;28;20025;-71
2024/01/30 05:59:32;;;;;;;31.17;4.20;;;;;;;-0.37;55.48;95811.38;5043196;28;20040;-71
2024/01/30 06:01:57;;;;;;;13.82;4.43;;;;;;;-0.38;55.92;95807.16;5042819;28;20032;-71
2024/01/30 06:04:23;;;;;;;21.35;4.38;;;;;;;-0.41;56.09;95808.34;5042685;28;20100;-72
2024/01/30 06:06:48;;;;;;;18.55;3.90;;;;;;;-0.44;56.17;95811.38;5042995;28;20040;-72
2024/01/30 06:09:14;;;;;;;12.88;5.35;;;;;;;-0.42;56.03;95810.16;5042763;28;20200;-72
2024/01/30 06:11:39;;;;;;;13.52;5.03;;;;;;;-0.43;56.14;95805.09;5042728;28;20032;-72
2024/01/30 06:14:05;;;;;;;23.75;6.25;;;;;;;-0.41;56.28;95810.97;5042913;28;20025;-72
2024/01/30 06:16:30;;;;;;;29.33;7.05;;;;;;;-0.42;55.98;95812.78;5042906;28;20029;-73
2024/01/30 06:18:56;;;;;;;22.80;8.32;;;;;;;-0.46;56.18;95813.38;5041470;28;20041;-72
2024/01/30 06:21:24;;;;;;;21.02;7.95;;;;;;;-0.48;56.02;95810.13;5042547;28;20316;-70
2024/01/30 06:23:49;;;;;;;22.00;6.88;;;;;;;-0.49;55.91;95819.00;5042587;28;20367;-71
2024/01/30 06:26:15;;;;;;;20.42;6.38;;;;;;;-0.49;56.04;95822.44;5043019;28;20033;-71
2024/01/30 06:28:40;;;;;;;11.18;4.93;;;;;;;-0.47;55.73;95824.84;5042845;28;20426;-71
2024/01/30 06:31:05;;;;;;;14.57;5.68;;;;;;;-0.45;55.88;95822.84;5042694;28;20063;-71
2024/01/30 06:33:31;;;;;;;19.55;5.40;;;;;;;-0.42;55.97;95825.06;5043189;28;20057;-72
2024/01/30 06:35:56;;;;;;;20.52;6.50;;;;;;;-0.43;55.65;95816.41;5041433;28;20025;-71
2024/01/30 06:38:22;;;;;;;12.32;4.60;;;;;;;-0.38;55.06;95817.63;5042798;28;20029;-71
2024/01/30 06:40:47;;;;;;;16.10;5.90;;;;;;;-0.34;54.60;95824.09;5042442;28;20036;-71
2024/01/30 06:43:12;;;;;;;23.70;6.47;;;;;;;-0.32;54.36;95819.47;5042828;28;20251;-71
2024/01/30 06:45:38;;;;;;;24.40;7.57;;;;;;;-0.26;53.50;95823.94;5042666;28;20200;-71
2024/01/30 06:48:03;;;;;;;19.50;4.68;;;;;;;-0.25;53.36;95821.09;5042582;28;20026;-72
2024/01/30 06:50:29;;;;;;;12.10;5.32;;;;;;;-0.26;52.80;95821.31;5042811;28;20025;-72
2024/01/30 06:52:54;;;;;;;16.05;3.58;;;;;;;-0.24;52.28;95827.97;5042262;28;20120;-72
2024/01/30 06:55:20;;;;;;;5.82;2.85;;;;;;;-0.22;51.46;95818.09;5044490;28;20086;-72
2024/01/30 06:57:45;;;;;;;9.75;3.22;;;;;;;-0.23;51.16;95824.31;5046051;28;20053;-72
2024/01/30 07:00:11;;;;;;;5.63;2.17;;;;;;;-0.23;50.99;95813.84;5046033;28;20063;-74
2024/01/30 07:02:36;;;;;;;3.47;1.65;;;;;;;-0.26;50.14;95824.72;5045765;28;20026;-70
2024/01/30 07:05:05;;;;;;;5.38;2.05;;;;;;;-0.23;50.18;95834.00;5046065;28;20031;-78
2024/01/30 07:07:31;;;;;;;3.72;1.77;;;;;;;-0.21;50.32;95822.31;5045284;28;20025;-79
2024/01/30 07:09:56;;;;;;;6.55;2.10;;;;;;;-0.17;50.74;95833.22;5044951;28;20028;-76
2024/01/30 07:12:25;;;;;;;4.93;2.28;;;;;;;-0.08;50.81;95831.22;5046011;28;20028;-78
2024/01/30 07:14:52;;;;;;;5.78;1.90;;;;;;;-0.02;50.37;95831.25;5045918;28;20088;-75
2024/01/30 07:17:17;;;;;;;6.50;1.80;;;;;;;0.04;49.94;95832.28;5045681;28;20025;-88
2024/01/30 07:19:43;;;;;;;4.55;1.80;;;;;;;0.12;49.31;95824.22;5045716;28;20250;-77
2024/01/30 07:22:08;;;;;;;7.53;1.80;;;;;;;0.17;49.46;95829.66;5045811;28;20025;-76
2024/01/30 07:24:34;;;;;;;3.40;1.58;;;;;;;0.27;49.14;95829.28;5045386;28;20251;-76
2024/01/30 07:26:59;;;;;;;14.23;2.42;;;;;;;0.35;48.97;95836.97;5045673;28;20052;-76
2024/01/30 07:29:25;;;;;;;16.15;2.28;;;;;;;0.40;48.95;95831.13;5045504;28;20315;-77
2024/01/30 07:31:50;;;;;;;4.55;1.75;;;;;;;0.42;49.10;95826.47;5045339;28;20099;-77
2024/01/30 07:34:16;;;;;;;3.03;1.40;;;;;;;0.44;48.88;95832.31;5045412;28;20315;-78
2024/01/30 07:36:41;;;;;;;6.30;1.60;;;;;;;0.49;48.53;95834.34;5044706;28;20033;-73
2024/01/30 07:39:07;;;;;;;4.28;1.65;;;;;;;0.58;47.82;95833.94;5044642;28;20028;-73
2024/01/30 07:41:32;;;;;;;4.13;1.98;;;;;;;0.62;47.96;95829.09;5043722;28;20063;-73
2024/01/30 07:43:58;;;;;;;7.95;2.25;;;;;;;0.69;47.82;95829.09;5044883;28;20021;-73
2024/01/30 07:46:23;;;;;;;4.65;1.73;;;;;;;0.76;47.39;95819.41;5045096;28;20021;-73
2024/01/30 07:48:49;;;;;;;8.10;2.03;;;;;;;0.82;47.31;95828.31;5043787;28;20021;-73
2024/01/30 07:51:14;;;;;;;3.42;1.58;;;;;;;0.89;47.16;95819.38;5043867;28;20018;-73
2024/01/30 07:53:43;;;;;;;32.05;3.60;;;;;;;0.95;46.88;95815.94;5044193;28;20017;-73
2024/01/30 07:56:08;;;;;;;6.55;2.45;;;;;;;1.01;46.85;95822.22;5044768;28;20021;-75
2024/01/30 07:58:34;;;;;;;5.80;1.95;;;;;;;1.06;46.85;95822.41;5044781;28;20342;-75
2024/01/30 08:01:00;;;;;;;5.43;2.05;;;;;;;1.08;46.65;95824.81;5044268;28;20025;-75
2024/01/30 08:03:26;;;;;;;8.65;2.03;;;;;;;1.11;46.15;95824.41;5044252;28;20036;-75
2024/01/30 08:05:51;;;;;;;15.88;1.90;;;;;;;1.16;46.10;95827.22;5043845;28;20037;-76
2024/01/30 08:08:17;;;;;;;10.30;1.88;;;;;;;1.18;46.55;95819.94;5044324;28;20033;-75
2024/01/30 08:10:42;;;;;;;4.55;1.95;;;;;;;1.24;46.35;95829.63;5044745;28;20267;-76
2024/01/30 08:13:08;;;;;;;4.40;1.90;;;;;;;1.29;46.34;95816.69;5044884;28;20021;-76
2024/01/30 08:15:34;;;;;;;5.05;2.55;;;;;;;1.32;46.30;95818.09;5044818;28;20017;-75
2024/01/30 08:18:00;;;;;;;13.25;3.00;;;;;;;1.35;45.70;95815.88;5044821;28;20029;-76
2024/01/30 08:20:25;;;;;;;9.98;2.60;;;;;;;1.37;45.97;95819.09;5044661;28;20025;-75
2024/01/30 08:22:52;;;;;;;13.07;3.47;;;;;;;1.45;46.19;95825.16;5043999;28;20067;-75
2024/01/30 08:25:17;;;;;;;7.53;2.33;;;;;;;1.49;45.93;95821.09;5044195;28;20059;-75
2024/01/30 08:27:42;;;;;;;9.40;3.10;;;;;;;1.57;46.06;95818.22;5044213;28;20017;-75
2024/01/30 08:30:08;;;;;;;10.82;3.33;;;;;;;1.64;45.96;95816.38;5042767;28;20132;-75
2024/01/30 08:32:34;;;;;;;11.88;2.38;;;;;;;1.65;45.29;95825.88;5043981;28;20048;-75
2024/01/30 08:35:03;;;;;;;6.20;2.22;;;;;;;1.72;44.89;95816.13;5044154;28;20127;-74
2024/01/30 08:37:29;;;;;;;10.95;3.05;;;;;;;1.76;44.62;95819.94;5043896;28;20201;-75
2024/01/30 08:39:54;;;;;;;6.88;2.50;;;;;;;1.82;44.52;95820.16;5043998;28;20127;-75
2024/01/30 08:42:22;;;;;;;5.30;2.45;;;;;;;1.87;44.49;95826.38;5043723;28;20215;-75
2024/01/30 08:44:52;;;;;;;7.57;2.83;;;;;;;1.95;44.41;95830.59;5043896;28;20027;-75
2024/01/30 08:47:18;;;;;;;8.07;3.03;;;;;;;2.00;43.92;95830.78;5043728;28;20044;-75
2024/01/30 08:49:44;;;;;;;8.18;3.00;;;;;;;2.01;44.07;95835.00;5043776;28;20088;-75
2024/01/30 08:52:10;;;;;;;14.27;3.10;;;;;;;1.98;43.97;95830.97;5043680;28;20025;-75
2024/01/30 08:54:36;;;;;;;6.07;2.72;;;;;;;2.08;44.15;95835.00;5043906;28;20028;-75
2024/01/30 08:57:01;;;;;;;4.75;2.22;;;;;;;2.12;44.05;95846.69;5043777;28;20017;-74
2024/01/30 08:59:27;;;;;;;10.00;2.60;;;;;;;2.24;43.79;95846.81;5043401;28;20092;-75
2024/01/30 09:01:54;;;;;;;9.35;2.75;;;;;;;2.28;43.35;95853.25;5043426;28;20200;-75
2024/01/30 09:04:21;;;;;;;12.95;2.50;;;;;;;2.36;43.17;95847.75;5043548;28;20239;-74
2024/01/30 09:06:46;;;;;;;21.23;3.35;;;;;;;2.40;42.87;95844.50;5043310;28;20021;-75
2024/01/30 09:09:12;;;;;;;6.30;3.30;;;;;;;2.37;42.92;95849.38;5042290;28;20086;-75
2024/01/30 09:11:37;;;;;;;7.10;2.60;;;;;;;2.49;42.88;95852.13;5043264;28;20017;-76
2024/01/30 09:14:02;;;;;;;12.13;3.67;;;;;;;2.53;42.49;95834.91;5043698;28;20041;-76
2024/01/30 09:16:28;;;;;;;7.07;3.28;;;;;;;2.55;42.55;95843.38;5043727;28;20083;-76
2024/01/30 09:18:53;;;;;;;8.60;3.00;;;;;;;2.64;44.74;95834.19;5043180;28;20204;-75
2024/01/30 09:21:19;;;;;;;6.80;2.70;;;;;;;2.58;42.80;95833.22;5043191;28;20021;-76
2024/01/30 09:23:44;;;;;;;8.95;3.00;;;;;;;2.68;42.34;95830.13;5043197;28;20037;-75
2024/01/30 09:26:10;;;;;;;5.55;3.03;;;;;;;2.72;42.12;95830.50;5043494;28;20215;-75
2024/01/30 09:28:35;;;;;;;5.78;2.78;;;;;;;2.78;42.02;95825.16;5043195;28;20275;-75
2024/01/30 09:31:01;;;;;;;8.82;2.50;;;;;;;2.80;42.31;95822.31;5043237;28;20020;-75
2024/01/30 09:33:26;;;;;;;6.25;3.20;;;;;;;2.81;42.25;95823.94;5043189;28;20036;-75
2024/01/30 09:35:52;;;;;;;9.48;2.95;;;;;;;2.87;41.72;95825.72;5043095;28;20064;-75
2024/01/30 09:38:17;;;;;;;6.55;3.17;;;;;;;2.89;41.96;95821.03;5043016;28;20048;-75
2024/01/30 09:40:43;;;;;;;10.80;3.22;;;;;;;2.94;41.80;95818.53;5043051;28;20210;-75
2024/01/30 09:43:13;;;;;;;8.55;3.08;;;;;;;2.95;41.71;95820.19;5042993;28;20021;-75
2024/01/30 09:45:41;;;;;;;5.40;2.90;;;;;;;2.94;42.01;95815.91;5043171;28;20311;-75
2024/01/30 09:48:07;;;;;;;7.03;3.58;;;;;;;2.98;42.09;95817.09;5042909;28;20036;-75
2024/01/30 09:50:36;;;;;;;15.35;3.70;;;;;;;3.05;42.17;95813.59;5043019;28;20021;-75
2024/01/30 09:53:02;;;;;;;9.50;3.85;;;;;;;3.09;41.86;95814.75;5042966;28;20052;-75
2024/01/30 09:55:27;;;;;;;6.75;3.38;;;;;;;3.15;41.83;95819.16;5042862;28;20017;-75
2024/01/30 09:57:52;;;;;;;14.18;4.82;;;;;;;3.27;41.46;95811.34;5042871;28;20374;-76
2024/01/30 10:00:18;;;;;;;10.63;4.57;;;;;;;3.38;41.10;95815.91;5042449;28;20021;-75
2024/01/30 10:02:45;;;;;;;13.38;3.90;;;;;;;3.50;41.03;95810.69;5042878;28;20021;-75
2024/01/30 10:05:15;;;;;;;8.65;4.30;;;;;;;3.58;40.58;95818.28;5042752;28;20092;-75
2024/01/30 10:07:50;;;;;;;10.32;4.22;;;;;;;3.68;40.31;95800.13;5042859;28;20071;-75
2024/01/30 10:10:15;;;;;;;7.72;3.42;;;;;;;3.76;40.33;95805.09;5042663;28;20084;-75
2024/01/30 10:12:41;;;;;;;7.43;3.33;;;;;;;3.84;40.13;95795.28;5042548;28;20018;-75
2024/01/30 10:15:08;;;;;;;12.15;3.75;;;;;;;3.90;40.31;95792.53;5042655;28;20025;-75
2024/01/30 10:17:33;;;;;;;11.32;3.15;;;;;;;3.99;40.29;95791.22;5042662;28;20060;-75
2024/01/30 10:20:05;;;;;;;13.00;4.10;;;;;;;4.02;40.23;95792.59;5042927;28;20034;-75
2024/01/30 10:22:30;;;;;;;8.52;4.00;;;;;;;4.14;40.22;95790.00;5042722;28;20056;-75
2024/01/30 10:24:56;;;;;;;12.32;4.25;;;;;;;4.23;39.53;95788.63;5042586;28;20033;-75
2024/01/30 10:27:29;;;;;;;11.25;3.58;;;;;;;4.19;39.50;95798.88;5042512;28;20032;-75
2024/01/30 10:29:55;;;;;;;20.77;6.18;;;;;;;4.14;40.36;95801.34;5044244;28;20048;-75
2024/01/30 10:32:21;;;;;;;11.13;3.67;;;;;;;3.92;40.48;95800.25;5046747;28;20029;-75
2024/01/30 10:34:47;;;;;;;15.50;4.20;;;;;;;3.86;40.26;95791.38;5046552;28;20060;-75
2024/01/30 10:37:15;;;;;;;7.38;2.90;;;;;;;3.90;40.52;95792.53;5046692;28;20030;-75
2024/01/30 10:39:42;;;;;;;17.90;3.53;;;;;;;4.00;41.37;95795.44;5046489;28;20223;-75
2024/01/30 10:42:15;;;;;;;8.50;4.30;;;;;;;4.10;40.47;95784.34;5046532;28;20030;-76
2024/01/30 10:45:08;;;;;;;7.25;2.67;;;;;;;4.09;40.25;95790.69;5046366;28;20029;-75
2024/01/30 10:47:36;;;;;;;8.15;4.18;;;;;;;3.75;41.49;95797.41;5046342;28;20036;-76
2024/01/30 10:50:03;;;;;;;10.00;4.75;;;;;;;3.80;41.10;95787.78;5046348;28;20025;-76
2024/01/30 10:52:29;;;;;;;8.30;3.75;;;;;;;3.94;41.35;95782.34;5046336;28;20025;-75
2024/01/30 10:54:56;;;;;;;7.07;3.22;;;;;;;4.07;41.44;95784.81;5046556;28;20025;-75
2024/01/30 10:57:26;;;;;;;6.85;3.67;;;;;;;4.22;41.00;95785.19;5046601;28;20029;-74
2024/01/30 10:59:56;;;;;;;12.43;3.47;;;;;;;4.32;40.46;95781.22;5045797;28;20029;-75
2024/01/30 11:02:26;;;;;;;7.03;3.40;;;;;;;4.44;40.29;95768.84;5045967;28;20049;-75
2024/01/30 11:04:57;;;;;;;8.93;3.17;;;;;;;4.43;40.17;95767.22;5045869;28;20025;-75
2024/01/30 11:07:28;;;;;;;7.18;3.55;;;;;;;4.44;40.29;95760.91;5045802;28;20040;-75
2024/01/30 11:10:01;;;;;;;7.27;3.00;;;;;;;4.52;40.25;95757.13;5045558;28;20029;-75
2024/01/30 11:12:28;;;;;;;9.63;3.92;;;;;;;4.41;40.08;95759.50;5045695;28;20195;-75
2024/01/30 11:15:16;;;;;;;33.72;4.10;;;;;;;4.48;40.88;95764.72;5046034;28;20466;-75
2024/01/30 11:17:53;;;;;;;12.45;3.67;;;;;;;4.64;40.75;95747.41;5045809;28;20021;-75
2024/01/30 11:20:26;;;;;;;9.40;3.90;;;;;;;4.76;40.42;95755.31;5045623;28;20048;-75
2024/01/30 11:22:53;;;;;;;8.63;3.83;;;;;;;4.91;39.98;95760.94;5045433;28;20049;-75
2024/01/30 11:25:21;;;;;;;6.20;3.22;;;;;;;4.97;38.61;95765.31;5044524;28;20064;-75
2024/01/30 11:27:49;;;;;;;6.93;3.20;;;;;;;4.70;39.37;95750.94;5043185;28;20098;-75
2024/01/30 11:30:24;;;;;;;13.10;4.05;;;;;;;4.95;39.46;95756.00;5044349;28;20052;-75
2024/01/30 11:32:58;;;;;;;8.95;3.40;;;;;;;5.00;39.51;95764.84;5044336;28;20332;-75